createdAt,value
2023-04-19T00:00:23.452Z,100189.22
2023-04-19T00:01:28.573Z,100195.34
2023-04-19T00:02:31.629Z,100191.88
2023-04-19T00:03:35.626Z,100193.69
2023-04-19T00:04:38.584Z,100191.06
2023-04-19T00:05:42.909Z,100189.44
2023-04-19T00:06:46.515Z,100186.88
2023-04-19T00:07:50.245Z,100183.22
2023-04-19T00:08:54.515Z,100190.34
2023-04-19T00:09:58.133Z,100196.41
2023-04-19T00:11:00.960Z,100193.81
2023-04-19T00:12:04.548Z,100197.25
2023-04-19T00:13:06.886Z,100195.56
2023-04-19T00:14:10.707Z,100198.09
2023-04-19T00:15:13.381Z,100197.34
2023-04-19T00:16:17.940Z,100204.28
2023-04-19T00:17:21.430Z,100194.75
2023-04-19T00:18:25.114Z,100198.28
2023-04-19T00:19:27.502Z,100204.28
2023-04-19T00:20:31.098Z,100199.09
2023-04-19T00:21:33.385Z,100205.25
2023-04-19T00:22:37.121Z,100199.84
2023-04-19T00:23:39.777Z,100201.75
2023-04-19T00:24:44.788Z,100191.88
2023-04-19T00:25:47.572Z,100199.09
2023-04-19T00:26:51.226Z,100198.25
2023-04-19T00:27:54.013Z,100199.00
2023-04-19T00:28:57.702Z,100201.59
2023-04-19T00:30:00.533Z,100184.69
2023-04-19T00:31:04.217Z,100198.16
2023-04-19T00:32:07.246Z,100195.41
2023-04-19T00:33:13.308Z,100195.50
2023-04-19T00:34:16.486Z,100199.00
2023-04-19T00:35:20.499Z,100199.03
2023-04-19T00:36:23.278Z,100199.00
2023-04-19T00:37:27.037Z,100190.41
2023-04-19T00:38:29.668Z,100188.66
2023-04-19T00:39:33.323Z,100190.41
2023-04-19T00:40:37.987Z,100182.41
2023-04-19T00:41:41.550Z,100185.94
2023-04-19T00:42:43.822Z,100187.75
2023-04-19T00:43:47.386Z,100179.09
2023-04-19T00:44:49.739Z,100186.88
2023-04-19T00:45:53.534Z,100189.44
2023-04-19T00:46:56.885Z,100193.66
2023-04-19T00:48:01.227Z,100162.03
2023-04-19T00:49:04.137Z,100178.06
2023-04-19T00:50:09.102Z,100176.31
2023-04-19T00:51:12.076Z,100188.34
2023-04-19T00:52:15.922Z,100177.16
2023-04-19T00:53:19.000Z,100184.91
2023-04-19T00:54:22.755Z,100175.41
2023-04-19T00:55:26.473Z,100174.53
2023-04-19T00:56:32.340Z,100184.91
2023-04-19T00:57:35.388Z,100179.59
2023-04-19T00:58:40.396Z,100156.72
2023-04-19T00:59:43.165Z,100180.44
2023-04-19T01:00:46.880Z,100186.56
2023-04-19T01:01:49.591Z,100187.44
2023-04-19T01:02:54.007Z,100182.28
2023-04-19T01:03:57.001Z,100183.97
2023-04-19T01:05:00.829Z,100176.06
2023-04-19T01:06:03.817Z,100177.09
2023-04-19T01:07:07.828Z,100179.59
2023-04-19T01:08:10.531Z,100170.09
2023-04-19T01:09:14.526Z,100167.50
2023-04-19T01:10:18.088Z,100181.25
2023-04-19T01:11:21.768Z,100170.91
2023-04-19T01:12:25.871Z,100167.50
2023-04-19T01:13:29.512Z,100170.91
2023-04-19T01:14:31.894Z,100174.44
2023-04-19T01:15:35.205Z,100170.09
2023-04-19T01:16:39.138Z,100172.69
2023-04-19T01:17:43.432Z,100173.56
2023-04-19T01:18:46.062Z,100166.44
2023-04-19T01:19:49.974Z,100176.16
2023-04-19T01:20:52.762Z,100176.97
2023-04-19T01:21:58.528Z,100166.50
2023-04-19T01:23:02.538Z,100179.59
2023-04-19T01:24:06.474Z,100180.44
2023-04-19T01:25:09.996Z,100186.56
2023-04-19T01:26:13.425Z,100178.00
2023-04-19T01:27:17.619Z,100184.06
2023-04-19T01:28:21.371Z,100185.75
2023-04-19T01:29:23.492Z,100178.00
2023-04-19T01:30:27.180Z,100175.41
2023-04-19T01:31:30.017Z,100179.75
2023-04-19T01:32:33.725Z,100185.66
2023-04-19T01:33:36.047Z,100179.75
2023-04-19T01:34:39.667Z,100182.34
2023-04-19T01:35:42.012Z,100187.44
2023-04-19T01:36:45.192Z,100186.56
2023-04-19T01:37:47.681Z,100183.09
2023-04-19T01:38:53.019Z,100179.59
2023-04-19T01:39:58.211Z,100178.75
2023-04-19T01:41:01.923Z,100182.13
2023-04-19T01:42:04.800Z,100179.56
2023-04-19T01:43:09.139Z,100180.44
2023-04-19T01:44:12.291Z,100182.94
2023-04-19T01:45:16.462Z,100176.06
2023-04-19T01:46:19.103Z,100174.34
2023-04-19T01:47:23.840Z,100172.59
2023-04-19T01:48:27.042Z,100176.84
2023-04-19T01:49:30.742Z,100172.59
2023-04-19T01:50:33.349Z,100170.91
2023-04-19T01:51:37.166Z,100170.84
2023-04-19T01:52:39.787Z,100174.34
2023-04-19T01:53:43.513Z,100171.75
2023-04-19T01:54:47.409Z,100175.28
2023-04-19T01:55:51.468Z,100171.00
2023-04-19T01:56:54.036Z,100173.56
2023-04-19T01:57:57.754Z,100171.00
2023-04-19T01:59:00.283Z,100164.03
2023-04-19T02:00:04.187Z,100171.03
2023-04-19T02:01:07.167Z,100174.44
2023-04-19T02:02:11.040Z,100171.03
2023-04-19T02:03:13.865Z,100175.31
2023-04-19T02:04:17.915Z,100173.63
2023-04-19T02:05:21.295Z,100170.16
2023-04-19T02:06:25.076Z,100168.53
2023-04-19T02:07:27.694Z,100178.00
2023-04-19T02:08:31.391Z,100176.34
2023-04-19T02:09:35.785Z,100176.34
2023-04-19T02:10:40.766Z,100178.13
2023-04-19T02:11:43.477Z,100167.84
2023-04-19T02:12:47.257Z,100159.91
2023-04-19T02:13:50.126Z,100166.00
2023-04-19T02:14:53.749Z,100176.56
2023-04-19T02:15:56.562Z,100169.69
2023-04-19T02:17:00.149Z,100165.41
2023-04-19T02:18:02.633Z,100169.78
2023-04-19T02:19:06.012Z,100169.84
2023-04-19T02:20:09.520Z,100175.06
2023-04-19T02:21:13.165Z,100175.16
2023-04-19T02:22:15.763Z,100167.31
2023-04-19T02:23:19.703Z,100175.06
2023-04-19T02:24:22.196Z,100175.19
2023-04-19T02:25:26.271Z,100171.84
2023-04-19T02:26:30.265Z,100173.63
2023-04-19T02:27:34.349Z,100171.94
2023-04-19T02:28:38.214Z,100171.13
2023-04-19T02:29:42.100Z,100171.19
2023-04-19T02:30:44.322Z,100172.13
2023-04-19T02:31:48.025Z,100166.94
2023-04-19T02:32:50.851Z,100169.53
2023-04-19T02:33:54.542Z,100171.22
2023-04-19T02:34:57.256Z,100171.31
2023-04-19T02:36:00.958Z,100173.91
2023-04-19T02:37:03.896Z,100171.38
2023-04-19T02:38:07.678Z,100174.94
2023-04-19T02:39:10.341Z,100167.16
2023-04-19T02:40:14.003Z,100163.69
2023-04-19T02:41:16.821Z,100177.56
2023-04-19T02:42:21.925Z,100175.03
2023-04-19T02:43:24.491Z,100170.75
2023-04-19T02:44:28.253Z,100169.94
2023-04-19T02:45:31.137Z,100166.44
2023-04-19T02:46:34.810Z,100169.00
2023-04-19T02:47:37.567Z,100174.31
2023-04-19T02:48:41.248Z,100162.94
2023-04-19T02:49:43.588Z,100170.06
2023-04-19T02:50:46.891Z,100175.16
2023-04-19T02:51:51.633Z,100170.81
2023-04-19T02:52:55.689Z,100176.88
2023-04-19T02:53:58.150Z,100171.72
2023-04-19T02:55:02.000Z,100169.16
2023-04-19T02:56:04.755Z,100172.66
2023-04-19T02:57:08.507Z,100179.56
2023-04-19T02:58:12.046Z,100179.66
2023-04-19T02:59:15.687Z,100177.13
2023-04-19T03:00:18.266Z,100179.78
2023-04-19T03:01:21.877Z,100171.94
2023-04-19T03:02:24.578Z,100183.31
2023-04-19T03:03:28.380Z,100173.72
2023-04-19T03:04:31.742Z,100179.97
2023-04-19T03:05:35.592Z,100180.84
2023-04-19T03:06:38.339Z,100178.31
2023-04-19T03:07:44.331Z,100181.00
2023-04-19T03:08:47.191Z,100179.28
2023-04-19T03:09:51.156Z,100181.88
2023-04-19T03:10:53.900Z,100174.97
2023-04-19T03:11:57.450Z,100175.84
2023-04-19T03:12:59.699Z,100177.56
2023-04-19T03:14:04.777Z,100174.91
2023-04-19T03:15:09.279Z,100175.94
2023-04-19T03:16:13.352Z,100168.19
2023-04-19T03:17:16.670Z,100166.47
2023-04-19T03:18:21.057Z,100171.66
2023-04-19T03:19:23.691Z,100171.66
2023-04-19T03:20:27.735Z,100168.09
2023-04-19T03:21:30.382Z,100174.91
2023-04-19T03:22:34.040Z,100167.09
2023-04-19T03:23:37.758Z,100172.97
2023-04-19T03:24:41.078Z,100173.28
2023-04-19T03:25:43.604Z,100181.03
2023-04-19T03:26:47.607Z,100179.34
2023-04-19T03:27:51.878Z,100176.75
2023-04-19T03:28:55.592Z,100171.56
2023-04-19T03:29:59.639Z,100175.06
2023-04-19T03:31:03.638Z,100173.22
2023-04-19T03:32:06.378Z,100161.66
2023-04-19T03:33:10.226Z,100175.84
2023-04-19T03:34:12.856Z,100169.75
2023-04-19T03:35:16.585Z,100168.19
2023-04-19T03:36:19.939Z,100171.66
2023-04-19T03:37:22.477Z,100173.41
2023-04-19T03:38:26.274Z,100169.88
2023-04-19T03:39:28.698Z,100172.63
2023-04-19T03:40:34.538Z,100172.72
2023-04-19T03:41:37.130Z,100172.72
2023-04-19T03:42:40.828Z,100174.69
2023-04-19T03:43:43.317Z,100178.34
2023-04-19T03:44:46.953Z,100181.03
2023-04-19T03:45:51.100Z,100174.16
2023-04-19T03:46:54.704Z,100185.75
2023-04-19T03:47:57.453Z,100175.53
2023-04-19T03:49:01.264Z,100181.78
2023-04-19T03:50:04.100Z,100180.31
2023-04-19T03:51:07.824Z,100173.53
2023-04-19T03:52:10.577Z,100180.66
2023-04-19T03:53:14.405Z,100180.78
2023-04-19T03:54:17.313Z,100180.13
2023-04-19T03:55:21.259Z,100175.97
2023-04-19T03:56:24.304Z,100181.31
2023-04-19T03:57:27.916Z,100183.25
2023-04-19T03:58:30.333Z,100178.31
2023-04-19T03:59:33.583Z,100176.75
2023-04-19T04:00:37.292Z,100181.31
2023-04-19T04:01:43.207Z,100176.28
2023-04-19T04:02:47.115Z,100182.69
2023-04-19T04:03:50.273Z,100182.13
2023-04-19T04:04:56.587Z,100184.28
2023-04-19T04:05:59.364Z,100179.38
2023-04-19T04:07:03.013Z,100184.88
2023-04-19T04:08:05.871Z,100187.63
2023-04-19T04:09:09.606Z,100171.78
2023-04-19T04:10:12.232Z,100189.66
2023-04-19T04:11:15.843Z,100197.69
2023-04-19T04:12:18.782Z,100186.63
2023-04-19T04:13:22.419Z,100173.44
2023-04-19T04:14:25.445Z,100188.63
2023-04-19T04:15:29.177Z,100191.34
2023-04-19T04:16:31.865Z,100197.63
2023-04-19T04:17:37.058Z,100201.34
2023-04-19T04:18:39.756Z,100202.25
2023-04-19T04:19:43.420Z,100205.13
2023-04-19T04:20:46.045Z,100208.50
2023-04-19T04:21:50.127Z,100200.03
2023-04-19T04:22:52.969Z,100209.66
2023-04-19T04:23:56.807Z,100213.25
2023-04-19T04:25:01.628Z,100185.25
2023-04-19T04:26:06.406Z,100207.53
2023-04-19T04:27:10.394Z,100207.75
2023-04-19T04:28:14.039Z,100211.44
2023-04-19T04:29:16.934Z,100206.34
2023-04-19T04:30:20.692Z,100211.78
2023-04-19T04:31:23.454Z,100208.53
2023-04-19T04:32:27.285Z,100200.88
2023-04-19T04:33:31.436Z,100208.75
2023-04-19T04:34:36.017Z,100208.03
2023-04-19T04:35:38.831Z,100205.53
2023-04-19T04:36:42.601Z,100210.75
2023-04-19T04:37:45.193Z,100211.69
2023-04-19T04:38:48.756Z,100210.03
2023-04-19T04:39:50.969Z,100205.81
2023-04-19T04:40:55.738Z,100202.47
2023-04-19T04:41:58.836Z,100212.88
2023-04-19T04:43:04.706Z,100205.72
2023-04-19T04:44:12.844Z,100209.94
2023-04-19T04:45:18.620Z,100212.34
2023-04-19T04:46:21.517Z,100208.03
2023-04-19T04:47:32.002Z,100207.09
2023-04-19T04:48:36.387Z,100203.63
2023-04-19T04:49:39.980Z,100200.28
2023-04-19T04:50:43.251Z,100202.09
2023-04-19T04:51:46.959Z,100196.97
2023-04-19T04:52:49.679Z,100196.16
2023-04-19T04:53:53.372Z,100179.53
2023-04-19T04:54:56.187Z,100192.97
2023-04-19T04:55:59.849Z,100191.38
2023-04-19T04:57:03.081Z,100191.41
2023-04-19T04:58:07.051Z,100192.34
2023-04-19T04:59:09.841Z,100198.59
2023-04-19T05:00:14.573Z,100198.63
2023-04-19T05:01:19.705Z,100195.28
2023-04-19T05:02:24.215Z,100197.00
2023-04-19T05:03:28.314Z,100191.72
2023-04-19T05:04:33.037Z,100196.00
2023-04-19T05:05:36.843Z,100193.41
2023-04-19T05:06:41.071Z,100191.72
2023-04-19T05:07:44.976Z,100190.00
2023-04-19T05:08:47.479Z,100190.94
2023-04-19T05:09:51.157Z,100189.28
2023-04-19T05:10:53.324Z,100191.13
2023-04-19T05:11:57.164Z,100184.81
2023-04-19T05:13:00.122Z,100190.78
2023-04-19T05:14:03.840Z,100188.09
2023-04-19T05:15:07.901Z,100189.56
2023-04-19T05:16:11.806Z,100197.19
2023-04-19T05:17:14.631Z,100197.97
2023-04-19T05:18:18.324Z,100196.16
2023-04-19T05:19:20.956Z,100190.00
2023-04-19T05:20:26.061Z,100201.38
2023-04-19T05:21:29.957Z,100191.88
2023-04-19T05:22:32.584Z,100196.16
2023-04-19T05:23:36.437Z,100193.66
2023-04-19T05:24:41.115Z,100199.78
2023-04-19T05:25:45.996Z,100194.44
2023-04-19T05:26:49.227Z,100190.28
2023-04-19T05:27:51.759Z,100196.31
2023-04-19T05:28:56.519Z,100187.59
2023-04-19T05:29:59.041Z,100197.38
2023-04-19T05:31:02.841Z,100193.81
2023-04-19T05:32:05.922Z,100180.66
2023-04-19T05:33:09.833Z,100197.59
2023-04-19T05:34:12.625Z,100197.69
2023-04-19T05:35:16.396Z,100200.50
2023-04-19T05:36:20.131Z,100204.09
2023-04-19T05:37:24.444Z,100206.84
2023-04-19T05:38:27.396Z,100200.97
2023-04-19T05:39:31.163Z,100195.81
2023-04-19T05:40:33.808Z,100190.63
2023-04-19T05:41:37.529Z,100198.72
2023-04-19T05:42:40.256Z,100200.59
2023-04-19T05:43:43.864Z,100199.00
2023-04-19T05:44:46.623Z,100195.44
2023-04-19T05:45:50.382Z,100204.41
2023-04-19T06:03:40.498Z,100214.28
2023-04-19T06:05:46.871Z,100212.00
2023-04-19T06:06:49.712Z,100219.00
2023-04-19T06:09:02.058Z,100221.91
2023-04-19T06:10:06.497Z,100224.63
2023-04-19T06:11:20.174Z,100227.38
2023-04-19T06:12:28.157Z,100213.56
2023-04-19T06:13:31.877Z,100224.91
2023-04-19T06:14:35.279Z,100221.59
2023-04-19T06:15:38.932Z,100220.81
2023-04-19T06:16:42.583Z,100233.88
2023-04-19T06:17:44.982Z,100218.31
2023-04-19T06:18:49.939Z,100228.91
2023-04-19T06:19:52.512Z,100223.72
2023-04-19T06:20:56.380Z,100232.38
2023-04-19T06:21:58.658Z,100215.91
2023-04-19T06:23:02.138Z,100225.53
2023-04-19T06:24:05.975Z,100232.59
2023-04-19T06:25:10.144Z,100224.72
2023-04-19T06:26:13.645Z,100223.00
2023-04-19T06:27:16.264Z,100231.81
2023-04-19T06:28:19.791Z,100232.69
2023-04-19T06:29:24.325Z,100230.13
2023-04-19T06:30:26.768Z,100234.47
2023-04-19T06:31:30.473Z,100234.31
2023-04-19T06:32:33.566Z,100229.09
2023-04-19T06:33:35.949Z,100233.50
2023-04-19T06:34:40.931Z,100231.69
2023-04-19T06:35:43.307Z,100226.38
2023-04-19T06:36:46.887Z,100233.53
2023-04-19T06:37:50.897Z,100231.97
2023-04-19T06:38:55.717Z,100234.66
2023-04-19T06:39:57.706Z,100237.38
2023-04-19T06:41:01.073Z,100225.28
2023-04-19T06:59:32.656Z,100212.78
2023-04-19T07:00:35.378Z,100218.88
2023-04-19T07:01:39.687Z,100220.50
2023-04-19T07:02:42.385Z,100217.91
2023-04-19T07:03:47.916Z,100205.75
2023-04-19T07:04:53.421Z,100222.38
2023-04-19T07:05:56.624Z,100220.66
2023-04-19T07:07:00.520Z,100222.44
2023-04-19T07:08:02.976Z,100221.56
2023-04-19T07:09:08.090Z,100223.44
2023-04-19T07:10:13.081Z,100229.56
2023-04-19T07:11:16.753Z,100218.28
2023-04-19T07:12:19.886Z,100226.28
2023-04-19T07:13:23.452Z,100223.75
2023-04-19T07:14:26.715Z,100223.06
2023-04-19T07:15:29.584Z,100222.19
2023-04-19T07:16:33.782Z,100220.66
2023-04-19T07:17:37.959Z,100194.22
2023-04-19T07:18:40.816Z,100227.75
2023-04-19T07:19:48.715Z,100225.13
2023-04-19T07:20:53.973Z,100220.06
2023-04-19T07:21:57.519Z,100226.25
2023-04-19T07:23:01.166Z,100219.31
2023-04-19T07:24:03.312Z,100223.84
2023-04-19T07:25:07.408Z,100223.03
2023-04-19T07:26:11.338Z,100226.56
2023-04-19T07:27:14.971Z,100217.81
2023-04-19T07:28:18.713Z,100214.44
2023-04-19T07:29:22.543Z,100220.59
2023-04-19T07:30:26.438Z,100218.03
2023-04-19T07:31:29.067Z,100224.94
2023-04-19T07:32:32.988Z,100219.84
2023-04-19T07:33:36.684Z,100214.59
2023-04-19T07:34:41.436Z,100219.75
2023-04-19T07:35:44.071Z,100210.25
2023-04-19T07:36:49.244Z,100213.72
2023-04-19T07:37:51.666Z,100216.22
2023-04-19T07:38:55.537Z,100219.75
2023-04-19T07:39:58.040Z,100219.69
2023-04-19T07:41:01.722Z,100211.72
2023-04-19T07:42:04.113Z,100215.38
2023-04-19T07:43:07.820Z,100217.06
2023-04-19T07:44:11.775Z,100212.75
2023-04-19T07:45:15.400Z,100211.78
2023-04-19T07:46:18.867Z,100217.97
2023-04-19T07:47:22.606Z,100223.25
2023-04-19T07:48:25.289Z,100216.25
2023-04-19T07:49:34.063Z,100216.41
2023-04-19T07:50:38.884Z,100215.66
2023-04-19T07:51:41.341Z,100219.28
2023-04-19T07:52:46.502Z,100219.34
2023-04-19T07:53:48.901Z,100209.88
2023-04-19T07:54:52.608Z,100210.03
2023-04-19T07:55:54.763Z,100217.88
2023-04-19T07:56:59.348Z,100213.63
2023-04-19T07:58:02.452Z,100213.69
2023-04-19T07:59:08.930Z,100212.03
2023-04-19T08:00:13.560Z,100209.53
2023-04-19T08:01:17.544Z,100198.19
2023-04-19T08:02:21.424Z,100206.78
2023-04-19T08:03:24.306Z,100209.41
2023-04-19T08:04:28.290Z,100215.56
2023-04-19T08:05:31.576Z,100207.75
2023-04-19T08:06:35.307Z,100211.97
2023-04-19T08:07:37.427Z,100203.22
2023-04-19T08:08:42.700Z,100208.28
2023-04-19T08:09:46.428Z,100217.81
2023-04-19T08:10:49.984Z,100208.28
2023-04-19T08:11:53.749Z,100208.28
2023-04-19T08:13:04.404Z,100208.31
2023-04-19T08:14:18.573Z,100213.66
2023-04-19T08:17:45.730Z,100208.56
2023-04-19T08:18:51.987Z,100208.56
2023-04-19T08:19:54.830Z,100201.72
2023-04-19T08:20:58.861Z,100197.44
2023-04-19T08:22:04.649Z,100198.28
2023-04-19T08:23:20.526Z,100203.50
2023-04-19T08:24:31.451Z,100200.06
2023-04-19T08:25:34.239Z,100201.78
2023-04-19T08:26:39.258Z,100200.91
2023-04-19T08:27:42.760Z,100204.47
2023-04-19T08:28:46.110Z,100202.88
2023-04-19T08:29:49.884Z,100194.19
2023-04-19T08:30:53.750Z,100206.59
2023-04-19T08:31:56.374Z,100200.66
2023-04-19T08:33:00.372Z,100197.25
2023-04-19T08:34:04.586Z,100193.03
2023-04-19T08:35:09.456Z,100199.19
2023-04-19T08:36:15.236Z,100200.16
2023-04-19T08:37:19.673Z,100192.41
2023-04-19T08:38:23.252Z,100190.72
2023-04-19T08:39:33.045Z,100185.53
2023-04-19T08:40:42.946Z,100186.44
2023-04-19T08:41:50.297Z,100186.44
2023-04-19T08:42:59.670Z,100182.03
2023-04-19T08:44:05.185Z,100184.50
2023-04-19T08:45:26.998Z,100195.81
2023-04-19T08:46:33.335Z,100192.19
2023-04-19T08:47:42.162Z,100172.78
2023-04-19T08:48:56.924Z,100193.75
2023-04-19T08:50:13.820Z,100189.31
2023-04-19T08:51:24.843Z,100193.72
2023-04-19T08:52:28.416Z,100189.38
2023-04-19T08:53:33.151Z,100186.69
2023-04-19T08:54:36.328Z,100189.25
2023-04-19T08:55:58.496Z,100191.81
2023-04-19T08:57:08.848Z,100191.78
2023-04-19T08:58:19.097Z,100196.97
2023-04-19T08:59:31.137Z,100184.69
2023-04-19T09:00:36.698Z,100185.56
2023-04-19T09:01:40.074Z,100188.19
2023-04-19T09:02:50.897Z,100190.81
2023-04-19T09:04:02.686Z,100186.50
2023-04-19T09:05:15.314Z,100190.88
2023-04-19T09:06:19.211Z,100178.69
2023-04-19T09:07:25.853Z,100186.56
2023-04-19T09:08:31.281Z,100173.44
2023-04-19T09:09:39.049Z,100180.47
2023-04-19T09:10:55.369Z,100180.41
2023-04-19T09:11:59.538Z,100180.50
2023-04-19T09:13:02.941Z,100183.06
2023-04-19T09:14:12.822Z,100173.56
2023-04-19T09:15:16.709Z,100185.69
2023-04-19T09:16:26.799Z,100176.84
2023-04-19T09:17:29.728Z,100181.28
2023-04-19T09:18:35.944Z,100190.03
2023-04-19T09:19:48.950Z,100182.16
2023-04-19T09:20:57.373Z,100176.06
2023-04-19T09:22:14.989Z,100172.56
2023-04-19T09:23:19.806Z,100177.84
2023-04-19T09:25:13.951Z,100169.13
2023-04-19T09:27:12.431Z,100171.94
2023-04-19T09:28:16.798Z,100169.44
2023-04-19T09:29:19.527Z,100160.75
2023-04-19T09:30:32.393Z,100159.09
2023-04-19T09:32:50.338Z,100182.00
2023-04-19T09:33:54.762Z,100157.66
2023-04-19T09:34:59.978Z,100159.34
2023-04-19T09:36:04.218Z,100176.91
2023-04-19T09:37:21.255Z,100167.38
2023-04-19T09:38:48.313Z,100177.94
2023-04-19T09:39:51.398Z,100169.28
2023-04-19T09:41:09.281Z,100169.38
2023-04-19T09:42:13.134Z,100153.56
2023-04-19T09:43:53.104Z,100177.31
2023-04-19T09:46:08.154Z,100166.06
2023-04-19T09:47:24.330Z,100166.94
2023-04-19T09:48:28.057Z,100174.03
2023-04-19T09:49:41.627Z,100173.19
2023-04-19T09:51:00.748Z,100164.53
2023-04-19T09:52:07.644Z,100168.06
2023-04-19T09:53:13.853Z,100159.28
2023-04-19T09:54:17.651Z,100163.69
2023-04-19T09:56:30.348Z,100162.84
2023-04-19T09:57:33.448Z,100162.84
2023-04-19T09:58:49.608Z,100163.72
2023-04-19T09:59:56.281Z,100162.88
2023-04-19T10:01:13.434Z,100164.69
2023-04-19T10:02:20.425Z,100163.84
2023-04-19T10:03:26.783Z,100170.00
2023-04-19T10:04:49.935Z,100158.69
2023-04-19T10:05:55.191Z,100160.47
2023-04-19T10:07:25.333Z,100165.72
2023-04-19T10:08:22.973Z,100170.97
2023-04-19T10:09:26.911Z,100163.13
2023-04-19T10:10:42.011Z,100162.19
2023-04-19T10:11:52.250Z,100162.16
2023-04-19T10:14:09.126Z,100130.69
2023-04-19T10:15:14.963Z,100162.19
2023-04-19T10:16:20.084Z,100159.53
2023-04-19T10:17:24.630Z,100162.16
2023-04-19T10:18:27.798Z,100167.34
2023-04-19T10:19:32.967Z,100167.34
2023-04-19T10:20:42.980Z,100154.22
2023-04-19T10:21:48.641Z,100169.13
2023-04-19T10:22:53.069Z,100156.84
2023-04-19T10:23:56.277Z,100160.22
2023-04-19T10:25:13.555Z,100168.06
2023-04-19T10:26:17.468Z,100169.72
2023-04-19T10:27:27.108Z,100161.75
2023-04-19T10:28:31.225Z,100161.69
2023-04-19T10:29:55.456Z,100166.03
2023-04-19T10:31:03.346Z,100170.34
2023-04-19T10:32:07.131Z,100162.41
2023-04-19T10:33:10.799Z,100162.38
2023-04-19T10:34:13.446Z,100163.16
2023-04-19T10:35:21.352Z,100160.50
2023-04-19T10:36:28.740Z,100160.69
2023-04-19T10:37:32.461Z,100162.44
2023-04-19T10:38:41.696Z,100152.78
2023-04-19T10:39:45.309Z,100147.53
2023-04-19T10:41:04.172Z,100153.66
2023-04-19T10:42:08.090Z,100144.06
2023-04-19T10:43:18.644Z,100158.91
2023-04-19T10:44:22.440Z,100158.03
2023-04-19T10:45:35.013Z,100142.22
2023-04-19T10:46:41.220Z,100148.22
2023-04-19T10:47:45.090Z,100151.63
2023-04-19T10:48:56.285Z,100148.13
2023-04-19T10:49:58.699Z,100153.41
2023-04-19T10:51:03.592Z,100147.19
2023-04-19T10:52:27.304Z,100144.63
2023-04-19T10:53:54.994Z,100158.09
2023-04-19T10:54:58.554Z,100146.97
2023-04-19T10:56:01.125Z,100146.28
2023-04-19T10:57:06.210Z,100140.41
2023-04-19T10:58:09.274Z,100144.16
2023-04-19T10:59:23.694Z,100141.78
2023-04-19T11:00:31.664Z,100132.31
2023-04-19T11:01:35.654Z,100139.44
2023-04-19T11:02:39.577Z,100129.94
2023-04-19T11:03:54.762Z,100147.56
2023-04-19T11:05:06.443Z,100144.88
2023-04-19T11:06:20.349Z,100150.09
2023-04-19T11:07:26.656Z,100145.81
2023-04-19T11:08:30.492Z,100145.88
2023-04-19T11:09:35.740Z,100136.31
2023-04-19T11:10:39.612Z,100138.16
2023-04-19T11:11:42.278Z,100141.75
2023-04-19T11:12:46.262Z,100138.28
2023-04-19T11:13:50.329Z,100137.47
2023-04-19T11:14:57.799Z,100133.97
2023-04-19T11:16:01.981Z,100135.72
2023-04-19T11:17:15.394Z,100141.00
2023-04-19T11:18:20.391Z,100129.59
2023-04-19T11:19:22.930Z,100132.25
2023-04-19T11:20:26.516Z,100128.75
2023-04-19T11:21:30.368Z,100130.50
2023-04-19T11:22:35.169Z,100124.34
2023-04-19T11:23:37.767Z,100134.88
2023-04-19T11:24:48.221Z,100133.13
2023-04-19T11:25:53.323Z,100126.06
2023-04-19T11:26:58.008Z,100116.31
2023-04-19T11:28:02.176Z,100118.91
2023-04-19T11:29:06.543Z,100131.16
2023-04-19T11:30:14.294Z,100123.09
2023-04-19T11:31:19.079Z,100125.59
2023-04-19T11:32:24.183Z,100132.53
2023-04-19T11:33:27.529Z,100124.47
2023-04-19T11:34:31.001Z,100128.72
2023-04-19T11:35:33.585Z,100132.97
2023-04-19T11:36:49.191Z,100138.88
2023-04-19T11:37:53.725Z,100131.97
2023-04-19T11:38:56.438Z,100133.53
2023-04-19T11:40:00.580Z,100136.19
2023-04-19T11:41:09.307Z,100125.69
2023-04-19T11:42:18.946Z,100117.13
2023-04-19T11:44:29.937Z,100093.06
2023-04-19T11:45:46.901Z,100114.16
2023-04-19T11:47:04.376Z,100133.75
2023-04-19T11:48:09.040Z,100130.50
2023-04-19T11:49:25.932Z,100117.34
2023-04-19T11:50:37.636Z,100123.44
2023-04-19T11:51:43.672Z,100142.47
2023-04-19T11:52:51.116Z,100120.56
2023-04-19T11:53:55.772Z,100112.63
2023-04-19T11:55:20.022Z,100111.69
2023-04-19T11:56:23.211Z,100126.63
2023-04-19T11:57:30.469Z,100129.28
2023-04-19T11:58:36.519Z,100130.19
2023-04-19T11:59:40.904Z,100128.47
2023-04-19T12:00:47.759Z,100128.47
2023-04-19T12:01:51.375Z,100131.97
2023-04-19T12:02:55.374Z,100132.06
2023-04-19T12:03:59.519Z,100121.56
2023-04-19T12:05:09.122Z,100126.81
2023-04-19T12:06:14.371Z,100128.56
2023-04-19T12:07:18.206Z,100117.22
2023-04-19T12:08:31.236Z,100112.00
2023-04-19T12:09:36.811Z,100092.78
2023-04-19T12:10:39.440Z,100118.19
2023-04-19T12:11:47.585Z,100119.09
2023-04-19T12:12:51.234Z,100120.00
2023-04-19T12:14:09.972Z,100098.03
2023-04-19T12:15:12.686Z,100112.97
2023-04-19T12:16:32.077Z,100109.44
2023-04-19T12:17:38.114Z,100104.19
2023-04-19T12:18:46.003Z,100100.69
2023-04-19T12:19:48.512Z,100110.34
2023-04-19T12:20:53.625Z,100112.94
2023-04-19T12:22:08.624Z,100119.97
2023-04-19T12:23:14.414Z,100112.94
2023-04-19T12:24:17.433Z,100104.19
2023-04-19T12:25:21.238Z,100096.31
2023-04-19T12:26:24.937Z,100101.56
2023-04-19T12:27:28.597Z,100112.06
2023-04-19T12:28:31.434Z,100093.69
2023-04-19T12:29:35.322Z,100099.81
2023-04-19T12:30:38.563Z,100095.41
2023-04-19T12:31:45.106Z,100104.19
2023-04-19T12:32:48.851Z,100110.34
2023-04-19T12:33:52.711Z,100094.56
2023-04-19T12:34:55.645Z,100102.44
2023-04-19T12:35:59.244Z,100082.28
2023-04-19T12:37:04.345Z,100099.78
2023-04-19T12:38:08.963Z,100103.28
2023-04-19T12:39:11.838Z,100105.94
2023-04-19T12:40:18.149Z,100105.03
2023-04-19T12:41:21.803Z,100091.88
2023-04-19T12:42:24.534Z,100099.78
2023-04-19T12:43:30.203Z,100097.16
2023-04-19T12:44:34.027Z,100087.53
2023-04-19T12:45:37.795Z,100103.28
2023-04-19T12:46:40.436Z,100105.94
2023-04-19T12:47:48.474Z,100094.50
2023-04-19T12:48:52.257Z,100102.41
2023-04-19T12:54:31.720Z,100094.41
2023-04-19T12:55:35.564Z,100087.41
2023-04-19T12:56:38.370Z,100096.16
2023-04-19T12:57:42.004Z,100091.78
2023-04-19T12:58:44.288Z,100104.88
2023-04-19T12:59:48.166Z,100108.31
2023-04-19T13:00:52.456Z,100098.72
2023-04-19T13:01:55.248Z,100100.47
2023-04-19T13:03:00.782Z,100107.50
2023-04-19T13:04:03.834Z,100096.16
2023-04-19T13:05:09.979Z,100090.03
2023-04-19T13:06:14.933Z,100085.72
2023-04-19T13:07:18.856Z,100098.03
2023-04-19T13:08:37.189Z,100100.69
2023-04-19T13:09:46.739Z,100096.31
2023-04-19T13:10:49.483Z,100084.84
2023-04-19T13:11:53.254Z,100091.84
2023-04-19T13:12:56.562Z,100098.84